Time;durP1;ratioP1;P1;durP2;ratioP2;P2;SDS_P1;SDS_P2;PMS_P1;PMS_P2;Temp;Humidity;BMP_temperature;BMP_pressure;BME280_temperature;BME280_humidity;BME280_pressure;Samples;Min_cycle;Max_cycle;Signal;HPM_P1;HPM_P2
2023/10/09 00:01:04;;;;;;;6.13;4.13;;;14.50;99.90;;;;;;5051393;28;20379;-80
2023/10/09 00:03:31;;;;;;;9.88;3.72;;;14.40;99.90;;;;;;5053707;28;20028;-80
2023/10/09 00:05:58;;;;;;;4.05;1.92;;;14.40;99.90;;;;;;5052708;28;20521;-81
2023/10/09 00:08:30;;;;;;;7.43;1.98;;;14.30;99.90;;;;;;5052113;28;20082;-78
2023/10/09 00:10:58;;;;;;;3.83;1.70;;;14.30;99.90;;;;;;5053593;28;20116;-81
2023/10/09 00:13:30;;;;;;;4.43;2.25;;;14.30;99.90;;;;;;5053973;28;20033;-81
2023/10/09 00:16:08;;;;;;;4.57;1.90;;;14.20;99.90;;;;;;5053882;28;20028;-81
2023/10/09 00:18:34;;;;;;;7.32;1.90;;;14.30;99.90;;;;;;5052427;28;20052;-81
2023/10/09 00:21:10;;;;;;;4.13;1.65;;;14.30;99.90;;;;;;5052522;28;20118;-82
2023/10/09 00:23:37;;;;;;;4.53;1.90;;;14.20;99.90;;;;;;5045994;28;20117;-80
2023/10/09 00:26:11;;;;;;;3.30;2.00;;;14.20;99.90;;;;;;5033660;28;20041;-82
2023/10/09 00:28:41;;;;;;;5.43;1.77;;;14.20;99.90;;;;;;5053646;28;20041;-83
2023/10/09 00:31:07;;;;;;;4.70;2.25;;;14.10;99.90;;;;;;5052062;28;20475;-80
2023/10/09 00:33:34;;;;;;;5.15;2.53;;;14.00;99.90;;;;;;5052352;28;20490;-82
2023/10/09 00:36:09;;;;;;;5.03;2.42;;;14.00;99.90;;;;;;5053686;28;20033;-82
2023/10/09 00:38:51;;;;;;;7.63;2.80;;;14.00;99.90;;;;;;5053207;28;20495;-82
2023/10/09 00:41:20;;;;;;;7.82;4.72;;;14.00;99.90;;;;;;5053335;28;20029;-81
2023/10/09 00:43:49;;;;;;;8.13;3.42;;;14.00;99.90;;;;;;5053232;28;20026;-82
2023/10/09 00:48:48;;;;;;;7.55;3.50;;;13.90;99.90;;;;;;5053079;28;20029;-81
2023/10/09 00:51:18;;;;;;;7.13;3.53;;;13.90;99.90;;;;;;5051388;28;20028;-82
2023/10/09 00:53:51;;;;;;;6.13;2.72;;;13.90;99.90;;;;;;5053026;28;20043;-82
2023/10/09 00:56:19;;;;;;;7.72;3.30;;;13.80;99.90;;;;;;5053093;28;20032;-81
2023/10/09 00:58:55;;;;;;;6.22;3.33;;;13.80;99.90;;;;;;5052494;28;20104;-81
2023/10/09 01:01:39;;;;;;;11.38;3.80;;;13.80;99.90;;;;;;5052582;28;20510;-81
2023/10/09 01:04:15;;;;;;;8.55;4.15;;;13.70;99.90;;;;;;5053152;28;20021;-81
2023/10/09 01:07:04;;;;;;;8.25;3.30;;;13.70;99.90;;;;;;5051558;28;20124;-81
2023/10/09 01:09:36;;;;;;;4.28;3.00;;;13.60;99.90;;;;;;5048607;28;20033;-82
2023/10/09 01:14:28;;;;;;;7.07;2.35;;;13.50;99.90;;;;;;5055868;28;20029;-81
2023/10/09 01:16:54;;;;;;;6.03;2.30;;;13.30;99.90;;;;;;5057473;28;20578;-81
2023/10/09 01:19:30;;;;;;;6.20;2.72;;;13.30;99.90;;;;;;5055178;28;20029;-81
2023/10/09 01:22:12;;;;;;;5.80;2.05;;;13.20;99.90;;;;;;5057093;28;20024;-81
2023/10/09 01:24:38;;;;;;;4.95;1.98;;;13.10;99.90;;;;;;5055789;28;20108;-81
2023/10/09 01:27:12;;;;;;;5.38;2.15;;;13.10;99.90;;;;;;5055612;28;20052;-81
2023/10/09 01:29:41;;;;;;;5.65;2.38;;;13.00;99.90;;;;;;5057278;28;20040;-81
2023/10/09 01:32:09;;;;;;;7.22;2.20;;;13.00;99.90;;;;;;5056470;28;20063;-81
2023/10/09 01:34:38;;;;;;;7.50;5.07;;;13.00;99.90;;;;;;5056926;28;20060;-82
2023/10/09 01:37:11;;;;;;;8.02;3.25;;;13.00;99.90;;;;;;5056050;28;20029;-81
2023/10/09 01:39:42;;;;;;;5.75;2.40;;;13.00;99.90;;;;;;5056169;28;20114;-81
2023/10/09 01:42:09;;;;;;;5.10;2.78;;;13.10;99.90;;;;;;5056370;28;20032;-81
2023/10/09 01:44:37;;;;;;;10.75;2.67;;;13.10;99.90;;;;;;5056561;28;20115;-82
2023/10/09 01:47:07;;;;;;;7.15;6.45;;;13.10;99.90;;;;;;5056441;28;20036;-80
2023/10/09 01:49:41;;;;;;;5.05;2.47;;;13.10;99.90;;;;;;5055928;28;20017;-83
2023/10/09 01:52:09;;;;;;;8.82;4.15;;;13.00;99.90;;;;;;5056217;28;20021;-81
2023/10/09 01:54:40;;;;;;;8.57;2.30;;;13.00;99.90;;;;;;5055489;28;20017;-82
2023/10/09 01:57:12;;;;;;;6.63;2.28;;;13.00;99.90;;;;;;5055578;28;20032;-81
2023/10/09 01:59:44;;;;;;;6.82;2.60;;;13.10;99.90;;;;;;5056479;28;20087;-81
2023/10/09 02:02:25;;;;;;;8.15;2.15;;;13.10;99.90;;;;;;5055854;28;20053;-81
2023/10/09 02:05:44;;;;;;;8.97;2.13;;;13.10;99.90;;;;;;5055287;28;20083;-82
2023/10/09 02:07:51;;;;;;;4.82;2.25;;;13.10;99.90;;;;;;5048328;28;20037;-81
2023/10/09 02:12:54;;;;;;;4.68;2.35;;;13.00;99.90;;;;;;5054796;28;20349;-82
2023/10/09 02:15:40;;;;;;;5.88;2.47;;;12.90;99.90;;;;;;5054884;28;20044;-81
2023/10/09 02:18:17;;;;;;;4.10;2.33;;;13.00;99.90;;;;;;5054987;28;20029;-80
2023/10/09 02:20:46;;;;;;;6.88;2.17;;;12.90;99.90;;;;;;5054038;28;20025;-80
2023/10/09 02:23:13;;;;;;;3.95;2.20;;;12.80;99.90;;;;;;5054679;28;21490;-81
2023/10/09 02:25:43;;;;;;;6.10;2.60;;;12.70;99.90;;;;;;5055106;28;20056;-82
2023/10/09 02:28:18;;;;;;;6.03;2.20;;;12.60;99.90;;;;;;5053249;28;20044;-81
2023/10/09 02:30:47;;;;;;;4.85;2.30;;;12.50;99.90;;;;;;5053844;28;20086;-81
2023/10/09 02:33:27;;;;;;;8.90;2.53;;;12.50;99.90;;;;;;5055357;28;20025;-82
2023/10/09 02:35:59;;;;;;;7.57;2.30;;;12.40;99.90;;;;;;5049771;28;20501;-81
2023/10/09 02:38:31;;;;;;;6.38;5.70;;;12.40;99.90;;;;;;5053918;28;20032;-82
2023/10/09 02:43:46;;;;;;;4.13;2.20;;;12.40;99.90;;;;;;5054997;28;20112;-81
2023/10/09 02:46:18;;;;;;;5.90;2.28;;;12.30;99.90;;;;;;5053890;28;20519;-82
2023/10/09 02:48:51;;;;;;;5.88;2.20;;;12.30;99.90;;;;;;5054843;28;20388;-80
2023/10/09 02:53:56;;;;;;;7.07;2.85;;;12.30;99.90;;;;;;5054925;28;20523;-81
2023/10/09 02:56:35;;;;;;;8.30;2.30;;;12.30;99.90;;;;;;5053455;28;20139;-82
2023/10/09 02:59:08;;;;;;;13.15;3.88;;;12.30;99.90;;;;;;5051265;28;20518;-80
2023/10/09 03:01:34;;;;;;;6.10;2.30;;;12.30;99.90;;;;;;5054498;28;20062;-81
2023/10/09 03:04:02;;;;;;;6.57;2.78;;;12.30;99.90;;;;;;5053631;28;20546;-81
2023/10/09 03:06:32;;;;;;;7.20;2.65;;;12.30;99.90;;;;;;5054303;28;20026;-81
2023/10/09 03:08:57;;;;;;;7.15;2.88;;;12.20;99.90;;;;;;5054843;28;20056;-80
2023/10/09 03:11:26;;;;;;;6.68;2.40;;;12.20;99.90;;;;;;5053256;28;20060;-79
2023/10/09 03:13:53;;;;;;;7.32;2.28;;;12.10;99.90;;;;;;5053029;28;20049;-80
2023/10/09 03:16:19;;;;;;;11.35;4.13;;;12.10;99.90;;;;;;5053842;28;20028;-80
2023/10/09 03:18:54;;;;;;;7.85;3.30;;;12.10;99.90;;;;;;5054325;28;20107;-79
2023/10/09 03:21:20;;;;;;;10.48;3.53;;;12.00;99.90;;;;;;5054819;28;20033;-78
2023/10/09 03:23:50;;;;;;;8.25;2.85;;;12.00;99.90;;;;;;5053835;28;20467;-80
2023/10/09 03:26:19;;;;;;;7.25;2.53;;;12.00;99.90;;;;;;5053172;28;20025;-79
2023/10/09 03:28:47;;;;;;;6.22;2.78;;;11.90;99.90;;;;;;5052870;28;20111;-80
2023/10/09 03:31:13;;;;;;;12.77;2.50;;;11.90;99.90;;;;;;5053299;28;20087;-79
2023/10/09 03:33:42;;;;;;;8.45;5.82;;;11.80;99.90;;;;;;5054388;28;20459;-80
2023/10/09 03:36:11;;;;;;;5.10;3.40;;;11.80;99.90;;;;;;5053179;28;20032;-80
2023/10/09 03:38:38;;;;;;;8.27;3.22;;;11.70;99.90;;;;;;5054050;28;20089;-79
2023/10/09 03:41:12;;;;;;;7.78;2.80;;;11.70;99.90;;;;;;5053234;28;20032;-79
2023/10/09 03:43:41;;;;;;;9.13;3.20;;;11.70;99.90;;;;;;5042956;28;20112;-79
2023/10/09 03:46:26;;;;;;;9.68;3.05;;;11.60;99.90;;;;;;5054018;28;20521;-79
2023/10/09 03:48:52;;;;;;;13.48;2.60;;;11.60;99.90;;;;;;5054342;28;20025;-80
2023/10/09 03:51:21;;;;;;;8.90;3.78;;;11.60;99.90;;;;;;5053335;28;20068;-79
2023/10/09 03:53:52;;;;;;;8.45;2.78;;;11.60;99.90;;;;;;5053378;28;20021;-79
2023/10/09 03:56:21;;;;;;;4.95;2.80;;;11.60;99.90;;;;;;5053028;28;20040;-79
2023/10/09 03:58:54;;;;;;;5.80;2.88;;;11.60;99.90;;;;;;5054873;28;20471;-79
2023/10/09 04:01:28;;;;;;;6.40;2.70;;;11.60;99.90;;;;;;5053168;28;20033;-79
2023/10/09 04:04:00;;;;;;;7.90;2.92;;;11.60;99.90;;;;;;5054243;28;20485;-79
2023/10/09 04:06:33;;;;;;;7.82;3.20;;;11.60;99.90;;;;;;5053602;28;20171;-79
2023/10/09 04:12:20;;;;;;;10.20;5.45;;;11.50;99.90;;;;;;5045282;28;20038;-79
2023/10/09 04:15:15;;;;;;;8.25;3.70;;;11.50;99.90;;;;;;5043088;28;20025;-79
2023/10/09 04:17:34;;;;;;;13.52;9.02;;;11.50;99.90;;;;;;5053308;28;20041;-80
2023/10/09 04:22:59;;;;;;;11.57;4.22;;;11.50;99.90;;;;;;5053873;28;20081;-78
2023/10/09 04:25:26;;;;;;;8.68;3.78;;;11.60;99.90;;;;;;5053852;28;20080;-78
2023/10/09 04:27:53;;;;;;;9.68;5.25;;;11.60;99.90;;;;;;5053268;28;20079;-78
2023/10/09 04:30:19;;;;;;;13.65;4.63;;;11.50;99.90;;;;;;5053872;28;20029;-78
2023/10/09 04:32:45;;;;;;;12.20;5.90;;;11.50;99.90;;;;;;5053715;28;20025;-78
2023/10/09 04:35:24;;;;;;;13.02;5.93;;;11.50;99.90;;;;;;5052948;28;20048;-78
2023/10/09 04:38:04;;;;;;;10.13;5.68;;;11.40;99.90;;;;;;5052937;28;20025;-78
2023/10/09 04:43:09;;;;;;;17.15;5.30;;;11.50;99.90;;;;;;5053242;28;20029;-77
2023/10/09 04:48:10;;;;;;;14.85;5.15;;;11.40;99.90;;;;;;5053480;28;20116;-78
2023/10/09 04:50:45;;;;;;;12.02;6.15;;;11.40;99.90;;;;;;5056176;28;20025;-77
2023/10/09 04:55:53;;;;;;;12.93;4.82;;;11.40;99.90;;;;;;5057021;28;20414;-77
2023/10/09 04:58:26;;;;;;;12.98;4.10;;;11.30;99.90;;;;;;5057938;28;20037;-77
2023/10/09 05:03:42;;;;;;;;;;;11.20;99.90;;;;;;5057251;28;20020;-79
2023/10/09 05:09:07;;;;;;;8.27;3.20;;;11.20;99.90;;;;;;5056630;28;20103;-77
2023/10/09 05:14:26;;;;;;;11.32;3.38;;;11.20;99.90;;;;;;5056825;28;20460;-77
2023/10/09 05:17:01;;;;;;;7.72;3.35;;;11.20;99.90;;;;;;5056634;28;20036;-78
2023/10/09 05:20:55;;;;;;;7.93;3.40;;;11.20;99.90;;;;;;5055749;28;20033;-80
2023/10/09 05:22:36;;;;;;;10.82;4.15;;;11.20;99.90;;;;;;5056373;28;20049;-78
2023/10/09 05:25:14;;;;;;;11.50;3.63;;;11.10;99.90;;;;;;5056865;28;20021;-79
2023/10/09 05:27:50;;;;;;;6.95;3.58;;;11.10;99.90;;;;;;5055640;28;20049;-79
2023/10/09 05:30:25;;;;;;;14.18;3.70;;;11.20;99.90;;;;;;5056193;28;20065;-79
2023/10/09 05:33:39;;;;;;;10.32;4.13;;;11.20;99.90;;;;;;5057195;28;20127;-78
2023/10/09 05:36:04;;;;;;;7.38;3.78;;;11.20;99.90;;;;;;5055611;28;20410;-79
2023/10/09 05:38:30;;;;;;;11.30;3.72;;;11.30;99.90;;;;;;5055932;28;20025;-80
2023/10/09 05:41:30;;;;;;;7.63;3.42;;;11.30;99.90;;;;;;5056234;28;20372;-79
2023/10/09 05:46:35;;;;;;;8.23;3.83;;;11.40;99.90;;;;;;5055803;28;20113;-79
2023/10/09 05:49:09;;;;;;;10.65;5.20;;;11.40;99.90;;;;;;5056383;28;20024;-79
2023/10/09 05:51:42;;;;;;;9.90;4.57;;;11.50;99.90;;;;;;5056030;28;20064;-79
2023/10/09 06:08:07;;;;;;;22.00;9.60;;;11.90;99.90;;;;;;5055789;28;20048;-79
2023/10/09 06:10:40;;;;;;;17.73;8.48;;;11.90;99.90;;;;;;5055938;28;20036;-79
2023/10/09 06:13:07;;;;;;;20.80;9.25;;;12.00;99.90;;;;;;5055725;28;20110;-79
2023/10/09 06:18:26;;;;;;;16.25;6.72;;;12.20;99.90;;;;;;5055762;28;20041;-80
2023/10/09 06:21:08;;;;;;;10.57;5.63;;;12.20;99.90;;;;;;5054286;28;20029;-79
2023/10/09 06:26:24;;;;;;;10.25;4.20;;;12.40;99.90;;;;;;5055029;28;20075;-79
2023/10/09 06:29:13;;;;;;;;;;;12.50;99.90;;;;;;5056485;28;20199;-79
2023/10/09 06:34:24;;;;;;;10.90;3.90;;;12.70;99.90;;;;;;5054428;28;20063;-80
2023/10/09 06:36:53;;;;;;;16.48;4.47;;;12.80;99.90;;;;;;5053570;28;20063;-80
2023/10/09 06:42:30;;;;;;;14.45;4.20;;;13.00;99.90;;;;;;5055125;28;20540;-80
2023/10/09 06:44:54;;;;;;;11.68;3.00;;;13.20;99.90;;;;;;5054331;28;20032;-79
2023/10/09 06:47:23;;;;;;;12.98;3.67;;;13.30;99.90;;;;;;5053216;28;20045;-80
2023/10/09 06:50:24;;;;;;;11.07;5.18;;;13.40;99.90;;;;;;5055269;28;20067;-79
2023/10/09 06:55:19;;;;;;;9.77;4.75;;;13.60;99.90;;;;;;5055037;28;20040;-80
2023/10/09 06:57:49;;;;;;;13.13;5.28;;;13.70;99.90;;;;;;5054774;28;20032;-79
2023/10/09 07:00:51;;;;;;;10.88;4.72;;;13.80;99.90;;;;;;5054817;28;20387;-79
2023/10/09 07:03:11;;;;;;;6.82;3.17;;;14.00;99.90;;;;;;5054590;28;20479;-80
2023/10/09 07:06:00;;;;;;;7.55;3.28;;;14.00;99.90;;;;;;5053548;28;20025;-80
2023/10/09 07:08:31;;;;;;;8.30;2.92;;;14.00;99.90;;;;;;5054609;28;20074;-80
2023/10/09 07:13:52;;;;;;;7.93;3.55;;;14.20;99.90;;;;;;5054371;28;19970;-80
2023/10/09 07:16:38;;;;;;;7.47;3.45;;;14.30;99.90;;;;;;5054969;28;20025;-80
2023/10/09 07:19:35;;;;;;;7.72;3.00;;;14.40;99.90;;;;;;5053259;28;20033;-80
2023/10/09 07:22:02;;;;;;;8.80;3.50;;;14.50;99.30;;;;;;5054709;28;20025;-80
2023/10/09 07:24:37;;;;;;;9.75;3.13;;;14.50;99.80;;;;;;5053971;28;20025;-80
2023/10/09 07:27:14;;;;;;;11.95;3.30;;;14.40;98.10;;;;;;5053928;28;20132;-80
2023/10/09 07:29:49;;;;;;;8.40;3.40;;;14.50;98.70;;;;;;5053226;28;20040;-80
2023/10/09 07:32:27;;;;;;;9.10;2.50;;;14.70;99.90;;;;;;5054391;28;20039;-80
2023/10/09 07:34:53;;;;;;;7.20;3.83;;;14.80;99.30;;;;;;5054475;28;20033;-81
2023/10/09 07:37:34;;;;;;;9.02;3.65;;;15.00;96.70;;;;;;5053208;28;20051;-80
2023/10/09 07:40:07;;;;;;;11.07;3.25;;;14.90;96.80;;;;;;5052876;28;20037;-80
2023/10/09 07:42:43;;;;;;;9.32;4.05;;;15.10;96.90;;;;;;5054275;28;20108;-81
2023/10/09 07:50:49;;;;;;;6.50;2.40;;;15.40;96.30;;;;;;5054182;28;20033;-80
2023/10/09 07:53:18;;;;;;;7.75;3.40;;;15.30;95.50;;;;;;5054447;28;20032;-80
2023/10/09 07:56:06;;;;;;;6.32;3.60;;;15.30;93.90;;;;;;5052556;28;20454;-80
2023/10/09 07:58:33;;;;;;;9.70;2.42;;;15.50;95.70;;;;;;5054210;28;20025;-81
2023/10/09 08:01:08;;;;;;;6.40;2.58;;;15.60;93.50;;;;;;5053468;28;20028;-81
2023/10/09 08:03:37;;;;;;;4.90;2.20;;;15.80;92.00;;;;;;5053139;28;20688;-80
2023/10/09 08:17:15;;;;;;;11.70;2.42;;;16.10;91.00;;;;;;5053473;28;20044;-80
2023/10/09 08:19:53;;;;;;;4.63;2.60;;;16.20;90.20;;;;;;5052654;28;20040;-81
2023/10/09 08:24:57;;;;;;;4.40;1.83;;;16.30;88.70;;;;;;5053719;28;20036;-81
2023/10/09 08:33:00;;;;;;;7.45;2.60;;;16.70;90.10;;;;;;5040095;28;20052;-81
2023/10/09 08:35:32;;;;;;;6.00;2.45;;;16.80;90.50;;;;;;5052324;28;20033;-80
2023/10/09 08:37:59;;;;;;;;;;;17.00;89.70;;;;;;5053347;28;20036;-81
2023/10/09 08:40:33;;;;;;;6.35;2.28;;;17.00;90.50;;;;;;5052444;28;19909;-81
2023/10/09 08:43:24;;;;;;;5.28;2.05;;;17.10;90.00;;;;;;5053063;28;20239;-81
2023/10/09 08:45:54;;;;;;;5.95;2.13;;;17.30;87.60;;;;;;5053613;28;20033;-80
2023/10/09 08:48:21;;;;;;;6.22;2.00;;;17.40;88.80;;;;;;5053297;28;20493;-80
2023/10/09 08:50:54;;;;;;;4.80;1.80;;;17.50;88.50;;;;;;5053160;28;20021;-80
2023/10/09 08:53:20;;;;;;;6.25;1.75;;;17.50;85.20;;;;;;5053705;28;20056;-80
2023/10/09 08:55:46;;;;;;;3.08;1.80;;;17.70;86.40;;;;;;5053709;28;20037;-80
2023/10/09 08:58:24;;;;;;;12.77;1.80;;;17.90;84.90;;;;;;5052668;28;20032;-80
2023/10/09 09:00:51;;;;;;;8.35;3.42;;;18.10;83.20;;;;;;5052372;28;20453;-81
2023/10/09 09:03:19;;;;;;;6.78;3.60;;;18.20;83.30;;;;;;5053277;28;20467;-80
2023/10/09 09:06:02;;;;;;;8.15;3.65;;;18.30;82.80;;;;;;5051487;28;20032;-81
2023/10/09 09:08:29;;;;;;;6.22;3.28;;;18.40;82.20;;;;;;5053450;28;20056;-81
2023/10/09 09:11:15;;;;;;;6.75;4.03;;;18.40;81.20;;;;;;5052715;28;20033;-80
2023/10/09 09:13:48;;;;;;;6.75;1.60;;;18.70;82.50;;;;;;5053410;28;20056;-81
2023/10/09 09:16:16;;;;;;;5.18;1.83;;;18.80;82.10;;;;;;5052015;28;20139;-80
2023/10/09 09:21:30;;;;;;;6.05;3.72;;;19.00;79.90;;;;;;5053395;28;20128;-81
2023/10/09 18:48:11;;;;;;;25.30;12.25;;;17.90;99.90;;;;;;5069958;28;20449;-84
